createdAt,value
2023-12-26T00:00:09.856Z,99.99
2023-12-26T00:01:09.794Z,99.99
2023-12-26T00:02:09.791Z,99.99
2023-12-26T00:03:09.868Z,99.99
2023-12-26T00:04:09.813Z,99.99
2023-12-26T00:05:09.786Z,99.99
2023-12-26T00:06:09.770Z,99.99
2023-12-26T00:07:09.696Z,99.99
2023-12-26T00:08:09.798Z,99.99
2023-12-26T00:09:09.730Z,99.99
2023-12-26T00:10:09.684Z,99.99
2023-12-26T00:11:09.691Z,99.99
2023-12-26T00:12:09.717Z,99.99
2023-12-26T00:13:09.626Z,99.99
2023-12-26T00:14:09.642Z,99.99
2023-12-26T00:15:09.794Z,99.99
2023-12-26T00:16:09.668Z,99.99
2023-12-26T00:17:09.609Z,99.99
2023-12-26T00:18:09.774Z,99.99
2023-12-26T00:19:09.883Z,99.99
2023-12-26T00:20:09.574Z,99.99
2023-12-26T00:21:09.600Z,99.99
2023-12-26T00:22:09.561Z,99.99
2023-12-26T00:23:09.543Z,99.99
2023-12-26T00:24:09.588Z,99.99
2023-12-26T00:25:09.522Z,99.99
2023-12-26T00:26:09.546Z,99.99
2023-12-26T00:27:09.539Z,99.99
2023-12-26T00:28:09.498Z,99.99
2023-12-26T00:29:09.472Z,99.99
2023-12-26T00:30:09.643Z,99.99
2023-12-26T00:31:09.541Z,99.99
2023-12-26T00:32:09.442Z,99.99
2023-12-26T00:33:09.595Z,99.99
2023-12-26T00:34:09.727Z,99.99
2023-12-26T00:35:09.446Z,99.99
2023-12-26T00:36:09.440Z,99.99
2023-12-26T00:37:09.410Z,99.99
2023-12-26T00:38:09.384Z,99.99
2023-12-26T00:39:09.560Z,99.99
2023-12-26T00:40:09.382Z,99.99
2023-12-26T00:41:09.365Z,99.99
2023-12-26T00:42:12.681Z,99.99
2023-12-26T00:43:09.345Z,99.99
2023-12-26T00:44:09.302Z,99.99
2023-12-26T00:45:09.360Z,99.99
2023-12-26T00:46:09.372Z,99.99
2023-12-26T00:47:09.276Z,99.99
2023-12-26T00:48:09.414Z,99.99
2023-12-26T00:49:09.394Z,99.99
2023-12-26T00:50:09.252Z,99.99
2023-12-26T00:51:09.262Z,99.99
2023-12-26T00:52:09.260Z,99.99
2023-12-26T00:53:09.234Z,99.99
2023-12-26T00:54:09.263Z,99.99
2023-12-26T00:55:09.212Z,99.99
2023-12-26T00:56:09.230Z,99.99
2023-12-26T00:57:09.237Z,99.99
2023-12-26T00:58:09.178Z,99.99
2023-12-26T00:59:09.173Z,99.99
2023-12-26T01:00:09.200Z,99.99
2023-12-26T01:01:09.212Z,99.99
2023-12-26T01:02:09.154Z,99.99
2023-12-26T01:03:09.198Z,99.99
2023-12-26T01:04:09.149Z,99.99
2023-12-26T01:05:09.164Z,99.99
2023-12-26T01:06:09.118Z,99.99
2023-12-26T01:07:09.150Z,99.99
2023-12-26T01:08:09.053Z,99.99
2023-12-26T01:09:09.131Z,99.99
2023-12-26T01:10:09.041Z,99.99
2023-12-26T01:11:09.060Z,99.99
2023-12-26T01:12:09.105Z,99.99
2023-12-26T01:13:09.069Z,99.99
2023-12-26T01:14:09.019Z,99.99
2023-12-26T01:15:09.054Z,99.99
2023-12-26T01:16:08.996Z,99.99
2023-12-26T01:17:08.997Z,99.99
2023-12-26T01:18:09.270Z,99.99
2023-12-26T01:19:09.082Z,99.99
2023-12-26T01:20:08.972Z,99.99
2023-12-26T01:21:09.028Z,99.99
2023-12-26T01:22:08.937Z,99.99
2023-12-26T01:23:09.011Z,99.99
2023-12-26T01:24:08.930Z,99.99
2023-12-26T01:25:08.955Z,99.99
2023-12-26T01:26:08.892Z,99.99
2023-12-26T01:27:08.987Z,99.99
2023-12-26T01:28:08.877Z,99.99
2023-12-26T01:29:08.872Z,99.99
2023-12-26T01:30:08.926Z,99.99
2023-12-26T01:31:08.945Z,99.99
2023-12-26T01:32:08.894Z,99.99
2023-12-26T01:33:09.046Z,99.99
2023-12-26T01:34:08.867Z,99.99
2023-12-26T01:35:08.803Z,99.99
2023-12-26T01:36:08.804Z,99.99
2023-12-26T01:37:08.801Z,99.99
2023-12-26T01:38:08.772Z,99.99
2023-12-26T01:39:08.793Z,99.99
2023-12-26T01:40:08.766Z,99.99
2023-12-26T01:41:08.763Z,99.99
2023-12-26T01:42:08.800Z,99.99
2023-12-26T01:43:08.717Z,99.99
2023-12-26T01:44:08.717Z,99.99
2023-12-26T01:45:08.761Z,99.99
2023-12-26T01:46:08.700Z,99.99
2023-12-26T01:47:08.744Z,99.99
2023-12-26T01:48:08.879Z,99.99
2023-12-26T01:49:08.714Z,99.99
2023-12-26T01:50:08.654Z,99.99
2023-12-26T01:51:08.691Z,99.99
2023-12-26T01:52:08.639Z,99.99
2023-12-26T01:53:08.637Z,99.99
2023-12-26T01:54:08.647Z,99.99
2023-12-26T01:55:08.620Z,99.99
2023-12-26T01:56:08.584Z,99.99
2023-12-26T01:57:08.719Z,99.99
2023-12-26T01:58:08.571Z,99.99
2023-12-26T01:59:08.556Z,99.99
2023-12-26T02:00:08.576Z,99.99
2023-12-26T02:01:08.563Z,99.99
2023-12-26T02:02:08.530Z,99.99
2023-12-26T02:03:08.547Z,99.99
2023-12-26T02:04:08.554Z,99.99
2023-12-26T02:05:08.487Z,99.99
2023-12-26T02:06:08.565Z,99.99
2023-12-26T02:07:08.496Z,99.99
2023-12-26T02:08:17.907Z,99.99
2023-12-26T02:09:09.516Z,99.99
2023-12-26T02:10:08.430Z,99.99
2023-12-26T02:11:08.436Z,99.99
2023-12-26T02:12:08.439Z,99.99
2023-12-26T02:13:08.444Z,99.99
2023-12-26T02:14:08.401Z,99.99
2023-12-26T02:15:08.446Z,99.99
2023-12-26T02:16:08.375Z,99.99
2023-12-26T02:17:08.366Z,99.99
2023-12-26T02:18:08.657Z,99.99
2023-12-26T02:19:08.545Z,99.99
2023-12-26T02:20:08.318Z,99.99
2023-12-26T02:21:08.359Z,99.99
2023-12-26T02:22:08.286Z,99.99
2023-12-26T02:23:08.306Z,99.99
2023-12-26T02:24:08.334Z,99.99
2023-12-26T02:25:08.275Z,99.99
2023-12-26T02:26:08.300Z,99.99
2023-12-26T02:27:08.253Z,99.99
2023-12-26T02:28:08.273Z,99.99
2023-12-26T02:29:08.234Z,99.99
2023-12-26T02:30:08.282Z,99.99
2023-12-26T02:31:08.222Z,99.99
2023-12-26T02:32:08.237Z,99.99
2023-12-26T02:33:08.410Z,99.99
2023-12-26T02:34:08.343Z,99.99
2023-12-26T02:35:08.193Z,99.99
2023-12-26T02:36:08.216Z,99.99
2023-12-26T02:37:08.150Z,99.99
2023-12-26T02:38:08.156Z,99.99
2023-12-26T02:39:08.134Z,99.99
2023-12-26T02:40:08.156Z,99.99
2023-12-26T02:41:08.097Z,99.99
2023-12-26T02:42:08.171Z,99.99
2023-12-26T02:43:08.125Z,99.99
2023-12-26T02:44:08.063Z,99.99
2023-12-26T02:45:08.088Z,99.99
2023-12-26T02:46:08.042Z,99.99
2023-12-26T02:47:08.037Z,99.99
2023-12-26T02:48:08.198Z,99.99
2023-12-26T02:49:08.108Z,99.99
2023-12-26T02:50:08.016Z,99.99
2023-12-26T02:51:08.031Z,99.99
2023-12-26T02:52:07.998Z,99.99
2023-12-26T02:53:08.015Z,99.99
2023-12-26T02:54:07.992Z,99.99
2023-12-26T02:55:07.965Z,99.99
2023-12-26T02:56:08.000Z,99.99
2023-12-26T02:57:07.985Z,99.99
2023-12-26T02:58:08.007Z,99.99
2023-12-26T02:59:07.915Z,99.99
2023-12-26T03:00:08.021Z,99.99
2023-12-26T03:01:07.918Z,99.99
2023-12-26T03:02:07.880Z,99.99
2023-12-26T03:03:08.165Z,99.99
2023-12-26T03:04:07.923Z,99.99
2023-12-26T03:05:07.883Z,99.99
2023-12-26T03:06:07.885Z,99.99
2023-12-26T03:07:07.844Z,99.99
2023-12-26T03:08:07.827Z,99.99
2023-12-26T03:09:07.881Z,99.99
2023-12-26T03:10:07.784Z,99.99
2023-12-26T03:11:07.812Z,99.99
2023-12-26T03:12:07.823Z,99.99
2023-12-26T03:13:07.751Z,99.99
2023-12-26T03:14:07.779Z,99.99
2023-12-26T03:15:07.830Z,99.99
2023-12-26T03:16:07.780Z,99.99
2023-12-26T03:17:07.730Z,99.99
2023-12-26T03:18:07.799Z,99.99
2023-12-26T03:19:07.863Z,99.99
2023-12-26T03:20:07.691Z,99.99
2023-12-26T03:21:07.738Z,99.99
2023-12-26T03:22:07.727Z,99.99
2023-12-26T03:23:07.679Z,99.99
2023-12-26T03:24:07.819Z,99.99
2023-12-26T03:25:07.673Z,99.99
2023-12-26T03:26:07.647Z,99.99
2023-12-26T03:27:07.649Z,99.99
2023-12-26T03:28:07.614Z,99.99
2023-12-26T03:29:07.637Z,99.99
2023-12-26T03:30:07.697Z,99.99
2023-12-26T03:31:07.629Z,99.99
2023-12-26T03:32:07.627Z,99.99
2023-12-26T03:33:07.842Z,99.99
2023-12-26T03:34:07.647Z,99.99
2023-12-26T03:35:07.564Z,99.99
2023-12-26T03:36:07.561Z,99.99
2023-12-26T03:37:07.542Z,99.99
2023-12-26T03:38:07.541Z,99.99
2023-12-26T03:39:07.581Z,99.99
2023-12-26T03:40:07.522Z,99.99
2023-12-26T03:41:07.473Z,99.99
2023-12-26T03:42:07.505Z,99.99
2023-12-26T03:43:07.510Z,99.99
2023-12-26T03:44:07.616Z,99.99
2023-12-26T03:45:07.528Z,99.99
2023-12-26T03:46:07.425Z,99.99
2023-12-26T03:47:07.449Z,99.99
2023-12-26T03:48:07.611Z,99.99
2023-12-26T03:49:07.466Z,99.99
2023-12-26T03:50:07.441Z,99.99
2023-12-26T03:51:07.439Z,99.99
2023-12-26T03:52:07.378Z,99.99
2023-12-26T03:53:07.360Z,99.99
2023-12-26T03:54:07.433Z,99.99
2023-12-26T03:55:07.351Z,99.99
2023-12-26T03:56:07.322Z,99.99
2023-12-26T03:57:07.446Z,99.99
2023-12-26T03:58:07.314Z,99.99
2023-12-26T03:59:07.301Z,99.99
2023-12-26T04:00:07.357Z,99.99
2023-12-26T04:01:07.313Z,99.99
2023-12-26T04:02:07.266Z,99.99
2023-12-26T04:03:07.356Z,99.99
2023-12-26T04:04:07.376Z,99.99
2023-12-26T04:05:07.265Z,99.99
2023-12-26T04:06:07.338Z,99.99
2023-12-26T04:07:07.199Z,99.99
2023-12-26T04:08:07.240Z,99.99
2023-12-26T04:09:07.220Z,99.99
2023-12-26T04:10:07.204Z,99.99
2023-12-26T04:11:07.250Z,99.99
2023-12-26T04:12:07.203Z,99.99
2023-12-26T04:13:07.152Z,99.99
2023-12-26T04:14:07.153Z,99.99
2023-12-26T04:15:07.210Z,99.99
2023-12-26T04:16:07.102Z,99.99
2023-12-26T04:17:07.107Z,99.99
2023-12-26T04:18:07.272Z,99.99
2023-12-26T04:19:07.232Z,99.99
2023-12-26T04:20:07.097Z,99.99
2023-12-26T04:21:07.114Z,99.99
2023-12-26T04:22:07.056Z,99.99
2023-12-26T04:23:07.119Z,99.99
2023-12-26T04:24:07.080Z,99.99
2023-12-26T04:25:07.067Z,99.99
2023-12-26T04:26:07.013Z,99.99
2023-12-26T04:27:07.047Z,99.99
2023-12-26T04:28:06.979Z,99.99
2023-12-26T04:29:07.045Z,99.99
2023-12-26T04:30:07.129Z,99.99
2023-12-26T04:31:07.063Z,99.99
2023-12-26T04:32:06.969Z,99.99
2023-12-26T04:33:07.242Z,99.99
2023-12-26T04:34:07.053Z,99.99
2023-12-26T04:35:06.995Z,99.99
2023-12-26T04:36:06.940Z,99.99
2023-12-26T04:37:06.920Z,99.99
2023-12-26T04:38:06.927Z,99.99
2023-12-26T04:39:06.907Z,99.99
2023-12-26T04:40:06.948Z,99.99
2023-12-26T04:41:06.872Z,99.99
2023-12-26T04:42:06.863Z,99.99
2023-12-26T04:43:06.941Z,99.99
2023-12-26T04:44:06.835Z,99.99
2023-12-26T04:45:06.869Z,99.99
2023-12-26T04:46:06.834Z,99.99
2023-12-26T04:47:06.824Z,99.99
2023-12-26T04:48:07.119Z,99.99
2023-12-26T04:49:06.902Z,99.99
2023-12-26T04:50:06.798Z,99.99
2023-12-26T04:51:06.777Z,99.99
2023-12-26T04:52:06.754Z,99.99
2023-12-26T04:53:06.745Z,99.99
2023-12-26T04:54:06.727Z,99.99
2023-12-26T04:55:06.756Z,99.99
2023-12-26T04:56:06.756Z,99.99
2023-12-26T04:57:06.714Z,99.99
2023-12-26T04:58:06.811Z,99.99
2023-12-26T04:59:06.685Z,99.99
2023-12-26T05:00:06.694Z,99.99
2023-12-26T05:01:06.729Z,99.99
2023-12-26T05:02:06.697Z,99.99
2023-12-26T05:03:06.756Z,99.99
2023-12-26T05:04:06.692Z,99.99
2023-12-26T05:05:06.615Z,99.99
2023-12-26T05:06:06.712Z,99.99
2023-12-26T05:07:06.605Z,99.99
2023-12-26T05:08:06.605Z,99.99
2023-12-26T05:09:06.584Z,99.99
2023-12-26T05:10:06.796Z,99.99
2023-12-26T05:11:06.561Z,99.99
2023-12-26T05:12:06.623Z,99.99
2023-12-26T05:13:06.531Z,99.99
2023-12-26T05:14:06.525Z,99.99
2023-12-26T05:15:06.606Z,99.99
2023-12-26T05:16:06.493Z,99.99
2023-12-26T05:17:06.478Z,99.99
2023-12-26T05:18:06.535Z,99.99
2023-12-26T05:19:06.646Z,99.99
2023-12-26T05:20:15.510Z,99.99
2023-12-26T05:21:07.457Z,99.99
2023-12-26T05:22:06.477Z,99.99
2023-12-26T05:23:06.449Z,99.99
2023-12-26T05:24:06.451Z,99.99
2023-12-26T05:25:06.501Z,99.99
2023-12-26T05:26:11.608Z,99.99
2023-12-26T05:27:07.620Z,99.99
2023-12-26T05:28:06.374Z,99.99
2023-12-26T05:29:06.431Z,99.99
2023-12-26T05:30:06.464Z,99.99
2023-12-26T05:31:06.396Z,99.99
2023-12-26T05:32:06.431Z,99.99
2023-12-26T05:33:06.438Z,99.99
2023-12-26T05:34:06.398Z,99.99
2023-12-26T05:35:06.319Z,99.99
2023-12-26T05:36:06.486Z,99.99
2023-12-26T05:37:06.273Z,99.99
2023-12-26T05:38:06.267Z,99.99
2023-12-26T05:39:06.315Z,99.99
2023-12-26T05:40:06.314Z,99.99
2023-12-26T05:41:06.241Z,99.99
2023-12-26T05:42:06.273Z,99.99
2023-12-26T05:43:06.222Z,99.99
2023-12-26T05:44:06.202Z,99.99
2023-12-26T05:45:06.309Z,99.99
2023-12-26T05:46:06.214Z,99.99
2023-12-26T05:47:06.185Z,99.99
2023-12-26T05:48:06.289Z,99.99
2023-12-26T05:49:06.392Z,99.99
2023-12-26T05:50:06.310Z,99.99
2023-12-26T05:51:06.137Z,99.99
2023-12-26T05:52:06.120Z,99.99
2023-12-26T05:53:06.126Z,99.99
2023-12-26T05:54:06.163Z,99.99
2023-12-26T05:55:06.114Z,99.99
2023-12-26T05:56:06.071Z,99.99
2023-12-26T05:57:07.993Z,99.99
2023-12-26T05:58:06.065Z,99.99
2023-12-26T05:59:06.043Z,99.99
2023-12-26T06:00:06.070Z,99.99
2023-12-26T06:01:06.098Z,99.99
2023-12-26T06:02:06.015Z,99.99
2023-12-26T06:03:06.059Z,99.99
2023-12-26T06:04:06.007Z,99.99
2023-12-26T06:05:06.155Z,99.99
2023-12-26T06:06:06.049Z,99.99
2023-12-26T06:07:05.975Z,99.99
2023-12-26T06:08:05.981Z,99.99
2023-12-26T06:09:05.961Z,99.99
2023-12-26T06:10:05.952Z,99.99
2023-12-26T06:11:06.617Z,99.99
2023-12-26T06:12:05.967Z,99.99
2023-12-26T06:13:05.904Z,99.99
2023-12-26T06:14:05.886Z,99.99
2023-12-26T06:15:05.920Z,99.99
2023-12-26T06:16:05.941Z,99.99
2023-12-26T06:17:05.855Z,99.99
2023-12-26T06:18:05.964Z,99.99
2023-12-26T06:19:05.958Z,99.99
2023-12-26T06:20:06.001Z,99.99
2023-12-26T06:21:05.987Z,99.99
2023-12-26T06:22:05.818Z,99.99
2023-12-26T06:23:05.808Z,99.99
2023-12-26T06:24:05.865Z,99.99
2023-12-26T06:25:05.792Z,99.99
2023-12-26T06:26:08.610Z,99.99
2023-12-26T06:27:05.822Z,99.99
2023-12-26T06:28:05.739Z,99.99
2023-12-26T06:29:05.770Z,99.99
2023-12-26T06:30:05.796Z,99.99
2023-12-26T06:31:05.741Z,99.99
2023-12-26T06:32:05.818Z,99.99
2023-12-26T06:33:05.740Z,99.99
2023-12-26T06:34:05.782Z,99.99
2023-12-26T06:35:06.166Z,99.99
2023-12-26T06:36:05.738Z,99.99
2023-12-26T06:37:05.654Z,99.99
2023-12-26T06:38:05.730Z,99.99
2023-12-26T06:39:05.683Z,99.99
2023-12-26T06:40:05.630Z,99.99
2023-12-26T06:41:05.695Z,99.99
2023-12-26T06:42:05.689Z,99.99
2023-12-26T06:43:05.601Z,99.99
2023-12-26T06:44:05.640Z,99.99
2023-12-26T06:45:05.609Z,99.99
2023-12-26T06:46:05.607Z,99.99
2023-12-26T06:47:05.499Z,99.99
2023-12-26T06:48:05.754Z,99.99
2023-12-26T06:49:05.575Z,99.99
2023-12-26T06:50:05.516Z,99.99
2023-12-26T06:51:05.527Z,99.99
2023-12-26T06:52:05.448Z,99.99
2023-12-26T06:53:05.518Z,99.99
2023-12-26T06:54:05.464Z,99.99
2023-12-26T06:55:05.530Z,99.99
2023-12-26T06:56:05.492Z,99.99
2023-12-26T06:57:05.438Z,99.99
2023-12-26T06:58:05.414Z,99.99
2023-12-26T06:59:05.501Z,99.99
2023-12-26T07:00:05.602Z,99.99
2023-12-26T07:01:05.425Z,99.99
2023-12-26T07:02:05.377Z,99.99
2023-12-26T07:03:05.433Z,99.99
2023-12-26T07:04:05.335Z,99.99
2023-12-26T07:05:05.349Z,99.99
2023-12-26T07:06:05.463Z,99.99
2023-12-26T07:07:05.296Z,99.99
2023-12-26T07:08:05.321Z,99.99
2023-12-26T07:09:05.379Z,99.99
2023-12-26T07:10:05.373Z,99.99
2023-12-26T07:11:05.287Z,99.99
2023-12-26T07:12:05.572Z,99.99
2023-12-26T07:13:05.293Z,99.99
2023-12-26T07:14:05.222Z,99.99
2023-12-26T07:15:05.302Z,99.99
2023-12-26T07:16:05.201Z,99.99
2023-12-26T07:17:05.250Z,99.99
2023-12-26T07:18:05.278Z,99.99
2023-12-26T07:19:05.326Z,99.99
2023-12-26T07:20:05.187Z,99.99
2023-12-26T07:21:05.174Z,99.99
2023-12-26T07:22:05.325Z,99.99
2023-12-26T07:23:05.130Z,99.99
2023-12-26T07:24:05.146Z,99.99
2023-12-26T07:25:05.094Z,99.99
2023-12-26T07:26:05.123Z,99.99
2023-12-26T07:27:05.142Z,99.99
2023-12-26T07:28:05.075Z,99.99
2023-12-26T07:29:05.058Z,99.99
2023-12-26T07:30:05.183Z,99.99
2023-12-26T07:31:05.780Z,99.99
2023-12-26T07:32:05.042Z,99.99
2023-12-26T07:33:05.176Z,99.99
2023-12-26T07:34:05.127Z,99.99
2023-12-26T07:35:05.018Z,99.99
2023-12-26T07:36:05.012Z,99.99
2023-12-26T07:37:05.011Z,99.99
2023-12-26T07:38:05.010Z,99.99
2023-12-26T07:39:05.087Z,99.99
2023-12-26T07:40:04.981Z,99.99
2023-12-26T07:41:04.929Z,99.99
2023-12-26T07:42:05.287Z,99.99
2023-12-26T07:43:05.006Z,99.99
2023-12-26T07:44:04.944Z,99.99
2023-12-26T07:45:04.956Z,99.99
2023-12-26T07:46:04.891Z,99.99
2023-12-26T07:47:04.891Z,99.99
2023-12-26T07:48:05.088Z,99.99
2023-12-26T07:49:04.975Z,99.99
2023-12-26T07:50:08.259Z,99.99
2023-12-26T07:51:04.926Z,99.99
2023-12-26T07:52:04.952Z,99.99
2023-12-26T07:53:04.998Z,99.99
2023-12-26T07:54:05.426Z,99.99
2023-12-26T07:55:04.847Z,99.99
2023-12-26T07:56:04.776Z,99.99
2023-12-26T07:57:04.900Z,99.99
2023-12-26T07:58:04.893Z,99.99
2023-12-26T07:59:04.817Z,99.99
2023-12-26T08:00:04.772Z,99.99
2023-12-26T08:01:04.779Z,99.99
2023-12-26T08:02:05.698Z,99.99
2023-12-26T08:03:04.779Z,99.99
2023-12-26T08:04:04.902Z,99.99
2023-12-26T08:05:04.688Z,99.99
2023-12-26T08:06:08.087Z,99.99
2023-12-26T08:07:04.716Z,99.99
2023-12-26T08:08:04.834Z,99.99
2023-12-26T08:09:04.808Z,99.99
2023-12-26T08:10:04.694Z,99.99
2023-12-26T08:11:04.635Z,99.99
2023-12-26T08:12:04.704Z,99.99
2023-12-26T08:13:04.687Z,99.96
2023-12-26T08:14:04.693Z,99.96
2023-12-26T08:15:04.615Z,99.96
2023-12-26T08:16:04.586Z,99.96
2023-12-26T08:17:04.637Z,99.99
2023-12-26T08:18:04.693Z,99.99
2023-12-26T08:19:04.736Z,99.96
2023-12-26T08:20:04.605Z,99.96
2023-12-26T08:21:04.566Z,99.66
2023-12-26T08:22:04.554Z,98.74
2023-12-26T08:23:04.557Z,98.74
2023-12-26T08:24:04.808Z,98.74
2023-12-26T08:25:04.496Z,98.74
2023-12-26T08:26:04.602Z,98.63
2023-12-26T08:27:04.560Z,97.91
2023-12-26T08:28:04.493Z,97.81
2023-12-26T08:29:04.544Z,98.02
2023-12-26T08:30:04.618Z,97.91
2023-12-26T08:31:04.523Z,97.81
2023-12-26T08:32:04.551Z,97.30
2023-12-26T08:33:04.523Z,97.40
2023-12-26T08:34:04.489Z,97.40
2023-12-26T08:35:04.548Z,97.50
2023-12-26T08:36:04.406Z,97.50
2023-12-26T08:37:04.451Z,97.40
2023-12-26T08:38:04.588Z,96.89
2023-12-26T08:39:04.387Z,96.99
2023-12-26T08:40:04.353Z,96.58
2023-12-26T08:41:04.305Z,96.69
2023-12-26T08:42:04.338Z,96.38
2023-12-26T08:43:04.356Z,96.07
2023-12-26T08:44:04.473Z,96.28
2023-12-26T08:45:04.396Z,96.07
2023-12-26T08:46:04.267Z,96.38
2023-12-26T08:47:04.272Z,96.28
2023-12-26T08:48:04.445Z,96.38
2023-12-26T08:49:04.453Z,96.17
2023-12-26T08:50:04.325Z,96.07
2023-12-26T08:51:04.258Z,96.07
2023-12-26T08:52:04.337Z,95.92
2023-12-26T08:53:04.340Z,95.87
2023-12-26T08:54:04.279Z,95.97
2023-12-26T08:55:04.372Z,95.46
2023-12-26T08:56:04.250Z,95.51
2023-12-26T08:57:04.200Z,95.87
2023-12-26T08:58:04.185Z,95.87
2023-12-26T08:59:04.134Z,95.56
2023-12-26T09:00:04.164Z,95.87
2023-12-26T09:01:04.141Z,95.66
2023-12-26T09:02:04.094Z,95.46
2023-12-26T09:03:07.299Z,95.25
2023-12-26T09:04:04.150Z,95.36
2023-12-26T09:05:04.048Z,95.25
2023-12-26T09:06:04.197Z,95.56
2023-12-26T09:07:04.098Z,96.07
2023-12-26T09:08:04.017Z,95.25
2023-12-26T09:09:04.212Z,95.25
2023-12-26T09:10:04.075Z,94.95
2023-12-26T09:11:05.411Z,94.64
2023-12-26T09:12:04.173Z,93.71
2023-12-26T09:13:04.159Z,93.82
2023-12-26T09:14:04.117Z,94.23
2023-12-26T09:15:04.036Z,94.64
2023-12-26T09:16:04.073Z,94.64
2023-12-26T09:17:04.025Z,94.74
2023-12-26T09:18:04.170Z,94.84
2023-12-26T09:19:04.022Z,95.15
2023-12-26T09:20:04.095Z,95.15
2023-12-26T09:21:03.965Z,95.20
2023-12-26T09:22:03.941Z,95.05
2023-12-26T09:23:03.897Z,95.46
2023-12-26T09:24:04.010Z,95.50
2023-12-26T09:25:03.908Z,95.29
2023-12-26T09:26:03.849Z,94.95
2023-12-26T09:27:04.025Z,94.95
2023-12-26T09:28:03.826Z,94.95
2023-12-26T09:29:03.887Z,94.33
2023-12-26T09:30:03.829Z,94.23
2023-12-26T09:31:03.849Z,93.86
2023-12-26T09:32:03.863Z,93.30
2023-12-26T09:33:03.949Z,93.20
2023-12-26T09:34:03.991Z,92.90
2023-12-26T09:35:03.775Z,92.69
2023-12-26T09:36:03.842Z,93.00
2023-12-26T09:37:03.746Z,92.90
2023-12-26T09:38:03.742Z,92.38
2023-12-26T09:39:03.822Z,92.28
2023-12-26T09:40:03.694Z,92.18
2023-12-26T09:41:06.075Z,92.69
2023-12-26T09:42:07.808Z,92.79
2023-12-26T09:43:03.761Z,92.69
2023-12-26T09:44:03.674Z,92.59
2023-12-26T09:45:04.575Z,92.59
2023-12-26T09:46:03.906Z,92.18
2023-12-26T09:47:03.664Z,92.28
2023-12-26T09:48:03.844Z,92.38
2023-12-26T09:49:15.289Z,92.79
2023-12-26T09:50:04.964Z,92.69
2023-12-26T09:51:04.009Z,92.28
2023-12-26T09:52:03.677Z,92.38
2023-12-26T09:53:03.754Z,92.59
2023-12-26T09:54:03.607Z,92.18
2023-12-26T09:55:04.150Z,91.87
2023-12-26T09:56:03.528Z,91.77
2023-12-26T09:57:04.834Z,91.87
2023-12-26T09:58:13.665Z,91.16
2023-12-26T09:59:11.465Z,91.56
2023-12-26T10:00:03.954Z,91.36
2023-12-26T10:01:04.354Z,91.26
2023-12-26T10:02:04.239Z,90.64
2023-12-26T10:03:04.059Z,90.30
2023-12-26T10:04:03.722Z,90.50
2023-12-26T10:05:03.825Z,90.13
2023-12-26T10:06:03.776Z,90.03
2023-12-26T10:07:03.871Z,90.44
2023-12-26T10:08:03.705Z,90.81
2023-12-26T10:09:03.882Z,90.39
2023-12-26T10:10:03.686Z,90.34
2023-12-26T10:11:03.648Z,89.27
2023-12-26T10:12:05.423Z,89.06
2023-12-26T10:13:04.250Z,88.65
2023-12-26T10:14:03.748Z,88.96
2023-12-26T10:15:04.261Z,88.86
2023-12-26T10:16:03.754Z,88.62
2023-12-26T10:17:03.994Z,88.41
2023-12-26T10:18:04.478Z,88.10
2023-12-26T10:19:03.590Z,88.00
2023-12-26T10:20:04.041Z,87.18
2023-12-26T10:21:03.904Z,86.98
2023-12-26T10:22:03.751Z,86.77
2023-12-26T10:23:03.863Z,86.88
2023-12-26T10:24:04.557Z,87.08
2023-12-26T10:25:03.804Z,86.88
2023-12-26T10:26:04.166Z,85.96
2023-12-26T10:27:03.773Z,86.10
2023-12-26T10:28:03.571Z,85.99
2023-12-26T10:29:05.627Z,85.85
2023-12-26T10:30:04.501Z,84.77
2023-12-26T10:31:03.697Z,84.77
2023-12-26T10:32:03.531Z,85.28
2023-12-26T10:33:04.712Z,85.38
2023-12-26T10:34:03.806Z,85.55
2023-12-26T10:35:03.674Z,85.44
2023-12-26T10:36:03.663Z,85.44
2023-12-26T10:37:03.478Z,84.79
2023-12-26T10:38:03.653Z,84.58
2023-12-26T10:39:05.041Z,84.83
2023-12-26T10:40:03.656Z,84.58
2023-12-26T10:41:03.443Z,84.28
2023-12-26T10:42:03.492Z,84.28
2023-12-26T10:43:03.572Z,83.97
2023-12-26T10:44:03.555Z,83.87
2023-12-26T10:45:03.595Z,84.17
2023-12-26T10:46:07.969Z,84.22
2023-12-26T10:47:03.560Z,84.31
2023-12-26T10:48:03.739Z,84.17
2023-12-26T10:49:03.441Z,84.07
2023-12-26T10:50:03.553Z,83.46
2023-12-26T10:51:03.345Z,82.78
2023-12-26T10:52:03.503Z,82.68
2023-12-26T10:53:03.298Z,82.98
2023-12-26T10:54:03.445Z,82.78
2023-12-26T10:55:06.675Z,82.89
2023-12-26T10:56:04.295Z,83.09
2023-12-26T10:57:03.141Z,82.78
2023-12-26T10:58:03.318Z,82.98
2023-12-26T10:59:03.597Z,82.57
2023-12-26T11:00:04.446Z,82.57
2023-12-26T11:01:03.052Z,82.27
2023-12-26T11:02:10.691Z,82.07
2023-12-26T11:03:04.464Z,82.27
2023-12-26T11:04:03.968Z,81.96
2023-12-26T11:05:03.582Z,82.17
2023-12-26T11:06:03.161Z,81.45
2023-12-26T11:07:03.091Z,81.76
2023-12-26T11:08:04.045Z,81.56
2023-12-26T11:09:03.310Z,81.65
2023-12-26T11:10:03.111Z,81.56
2023-12-26T11:11:03.328Z,81.65
2023-12-26T11:12:03.496Z,81.24
2023-12-26T11:13:03.429Z,81.56
2023-12-26T11:14:03.664Z,81.24
2023-12-26T11:15:03.596Z,81.04
2023-12-26T11:16:03.078Z,81.56
2023-12-26T11:17:03.257Z,80.74
2023-12-26T11:18:05.121Z,81.15
2023-12-26T11:19:03.616Z,81.15
2023-12-26T11:20:03.199Z,80.83
2023-12-26T11:21:03.390Z,80.74
2023-12-26T11:22:02.923Z,80.94
2023-12-26T11:23:03.003Z,80.98
2023-12-26T11:24:03.153Z,81.29
2023-12-26T11:25:03.069Z,81.49
2023-12-26T11:26:03.476Z,81.70
2023-12-26T11:27:02.980Z,81.45
2023-12-26T11:28:02.978Z,81.15
2023-12-26T11:29:02.852Z,80.46
2023-12-26T11:30:03.157Z,80.63
2023-12-26T11:31:02.846Z,80.77
2023-12-26T11:32:02.867Z,80.77
2023-12-26T11:33:03.069Z,80.88
2023-12-26T11:34:02.797Z,80.74
2023-12-26T11:35:02.877Z,80.53
2023-12-26T11:36:02.909Z,80.67
2023-12-26T11:37:02.831Z,80.57
2023-12-26T11:38:03.024Z,80.94
2023-12-26T11:39:02.777Z,80.77
2023-12-26T11:40:03.078Z,80.98
2023-12-26T11:41:02.744Z,80.98
2023-12-26T11:42:02.710Z,80.67
2023-12-26T11:43:02.798Z,80.36
2023-12-26T11:44:03.077Z,80.46
2023-12-26T11:45:03.021Z,80.67
2023-12-26T11:46:02.890Z,80.57
2023-12-26T11:47:02.869Z,80.57
2023-12-26T11:48:03.102Z,80.36
2023-12-26T11:49:02.941Z,80.60
2023-12-26T11:50:02.881Z,80.57
2023-12-26T11:51:02.793Z,80.51
2023-12-26T11:52:02.744Z,80.71
2023-12-26T11:53:02.709Z,80.71
2023-12-26T11:54:02.637Z,81.22
2023-12-26T11:55:02.797Z,81.52
2023-12-26T11:56:02.780Z,81.43
2023-12-26T11:57:02.491Z,81.63
2023-12-26T11:58:02.571Z,81.43
2023-12-26T11:59:02.443Z,81.43
2023-12-26T12:00:02.661Z,81.43
2023-12-26T12:01:02.501Z,81.73
2023-12-26T12:02:02.345Z,81.87
2023-12-26T12:03:02.599Z,82.24
2023-12-26T12:04:02.594Z,82.14
2023-12-26T12:05:02.664Z,82.04
2023-12-26T12:06:02.371Z,82.14
2023-12-26T12:07:02.475Z,82.04
2023-12-26T12:08:02.354Z,82.14
2023-12-26T12:09:02.449Z,82.24
2023-12-26T12:10:02.460Z,82.04
2023-12-26T12:11:02.785Z,81.94
2023-12-26T12:12:02.333Z,82.24
2023-12-26T12:13:02.260Z,82.35
2023-12-26T12:14:02.256Z,82.35
2023-12-26T12:15:02.333Z,82.59
2023-12-26T12:16:02.381Z,82.45
2023-12-26T12:17:02.232Z,82.65
2023-12-26T12:18:02.357Z,82.65
2023-12-26T12:19:03.118Z,82.55
2023-12-26T12:20:02.292Z,81.73
2023-12-26T12:21:02.317Z,81.84
2023-12-26T12:22:02.344Z,81.52
2023-12-26T12:23:02.234Z,81.01
2023-12-26T12:24:02.217Z,81.43
2023-12-26T12:25:02.317Z,81.43
2023-12-26T12:26:02.464Z,81.43
2023-12-26T12:27:02.463Z,80.91
2023-12-26T12:28:02.221Z,80.81
2023-12-26T12:29:02.207Z,80.19
2023-12-26T12:30:02.422Z,80.30
2023-12-26T12:31:02.383Z,79.38
2023-12-26T12:32:02.247Z,79.27
2023-12-26T12:33:02.216Z,79.17
2023-12-26T12:34:02.537Z,78.97
2023-12-26T12:35:02.031Z,78.97
2023-12-26T12:36:02.124Z,78.76
2023-12-26T12:37:01.996Z,78.52
2023-12-26T12:38:02.056Z,77.60
2023-12-26T12:39:02.009Z,77.50
2023-12-26T12:40:02.141Z,77.60
2023-12-26T12:41:02.008Z,77.09
2023-12-26T12:42:02.192Z,77.19
2023-12-26T12:43:02.006Z,76.98
2023-12-26T12:44:06.552Z,77.19
2023-12-26T12:45:02.963Z,77.29
2023-12-26T12:46:02.022Z,77.19
2023-12-26T12:47:02.028Z,76.64
2023-12-26T12:48:02.027Z,76.75
2023-12-26T12:49:02.176Z,76.54
2023-12-26T12:50:02.165Z,76.34
2023-12-26T12:51:02.054Z,76.54
2023-12-26T12:52:01.852Z,76.64